RYR36PW LZKZ-LFOB
Flight info
| Callsign | RYR36PW |
|---|---|
| Flight time | N/A |
| Altitude | 36000 |
| Route | TAKOS DCT TEPNI DCT KATQA DCT RUDAP DCT IBAGA Z715 COSJE T892 RIDSU Z114 DONAB Y180 DIK UN857 TOLVU DCT VEDUS |
| Aircraft | B738/M-SDE2E3FGHIRWXY/LB1 |
Departure
| Time | N/A |
|---|---|
| Airport | Košice International Airport (LZKZ) |
Arrival
| Time | 2026-04-22 19:37 |
|---|---|
| Airport | Beauvais-Tillé airport (LFOB) |
| Time | Latitude | Longitude | Altitude | Speed | Heading |
|---|---|---|---|---|---|
| 2026-04-22 19:04 | 49.71235 | 5.74175 | 32485 ft | 415 kts | 254° |
| 2026-04-22 19:04 | 49.70267 | 5.69978 | 32100 ft | 413 kts | 254° |
| 2026-04-22 19:05 | 49.69296 | 5.65832 | 31719 ft | 410 kts | 254° |
| 2026-04-22 19:05 | 49.68324 | 5.61709 | 31340 ft | 407 kts | 254° |
| 2026-04-22 19:05 | 49.67374 | 5.57700 | 30976 ft | 404 kts | 254° |
| 2026-04-22 19:05 | 49.66390 | 5.53553 | 30616 ft | 401 kts | 254° |
| 2026-04-22 19:06 | 49.65432 | 5.49524 | 30247 ft | 399 kts | 254° |
| 2026-04-22 19:06 | 49.64479 | 5.45521 | 29901 ft | 396 kts | 254° |
| 2026-04-22 19:06 | 49.63543 | 5.41547 | 29543 ft | 392 kts | 256° |
| 2026-04-22 19:07 | 49.62350 | 5.33478 | 28783 ft | 381 kts | 267° |
| 2026-04-22 19:07 | 49.62081 | 5.29430 | 28395 ft | 378 kts | 270° |
| 2026-04-22 19:07 | 49.61914 | 5.25407 | 28012 ft | 375 kts | 271° |
| 2026-04-22 19:07 | 49.61757 | 5.21450 | 27641 ft | 373 kts | 271° |
| 2026-04-22 19:08 | 49.61573 | 5.17420 | 27256 ft | 371 kts | 270° |
| 2026-04-22 19:08 | 49.61382 | 5.13527 | 26871 ft | 370 kts | 270° |
| 2026-04-22 19:08 | 49.61236 | 5.10658 | 26597 ft | 368 kts | 270° |
| 2026-04-22 19:08 | 49.61028 | 5.06679 | 26209 ft | 367 kts | 270° |
| 2026-04-22 19:09 | 49.60825 | 5.02824 | 25839 ft | 365 kts | 270° |
| 2026-04-22 19:09 | 49.60618 | 4.98934 | 25443 ft | 364 kts | 270° |
| 2026-04-22 19:09 | 49.60411 | 4.95059 | 25069 ft | 362 kts | 270° |
| 2026-04-22 19:09 | 49.60203 | 4.91201 | 24680 ft | 360 kts | 270° |
| 2026-04-22 19:10 | 49.59997 | 4.87357 | 24293 ft | 359 kts | 270° |
| 2026-04-22 19:10 | 49.59791 | 4.83519 | 23913 ft | 358 kts | 269° |
| 2026-04-22 19:10 | 49.59586 | 4.79706 | 23523 ft | 357 kts | 269° |
| 2026-04-22 19:10 | 49.59436 | 4.75898 | 23141 ft | 354 kts | 272° |
| 2026-04-22 19:11 | 49.59421 | 4.72125 | 22759 ft | 352 kts | 275° |
| 2026-04-22 19:11 | 49.59466 | 4.68351 | 22379 ft | 350 kts | 275° |
| 2026-04-22 19:11 | 49.59507 | 4.64604 | 21999 ft | 350 kts | 275° |
| 2026-04-22 19:11 | 49.59534 | 4.60858 | 21610 ft | 349 kts | 274° |
| 2026-04-22 19:12 | 49.59554 | 4.57124 | 21243 ft | 348 kts | 274° |
| 2026-04-22 19:12 | 49.59607 | 4.53410 | 20866 ft | 347 kts | 275° |
| 2026-04-22 19:12 | 49.59650 | 4.49689 | 20479 ft | 347 kts | 274° |
| 2026-04-22 19:12 | 49.59674 | 4.46035 | 20113 ft | 346 kts | 274° |
| 2026-04-22 19:13 | 49.59686 | 4.42338 | 19747 ft | 345 kts | 274° |
| 2026-04-22 19:13 | 49.59691 | 4.38646 | 19379 ft | 344 kts | 273° |
| 2026-04-22 19:13 | 49.59693 | 4.34956 | 19017 ft | 343 kts | 273° |
| 2026-04-22 19:13 | 49.59692 | 4.31265 | 18635 ft | 343 kts | 273° |
| 2026-04-22 19:14 | 49.59690 | 4.27645 | 18282 ft | 343 kts | 273° |
| 2026-04-22 19:14 | 49.59686 | 4.23973 | 17932 ft | 341 kts | 273° |
| 2026-04-22 19:14 | 49.59682 | 4.20315 | 17573 ft | 341 kts | 273° |
| 2026-04-22 19:14 | 49.59678 | 4.16666 | 17235 ft | 339 kts | 272° |
| 2026-04-22 19:15 | 49.59675 | 4.14258 | 17020 ft | 338 kts | 272° |
| 2026-04-22 19:15 | 49.59670 | 4.09419 | 16566 ft | 337 kts | 272° |
| 2026-04-22 19:15 | 49.59665 | 4.05819 | 16251 ft | 335 kts | 272° |
| 2026-04-22 19:15 | 49.59687 | 4.02247 | 15917 ft | 333 kts | 273° |
| 2026-04-22 19:16 | 49.59706 | 3.98683 | 15585 ft | 332 kts | 272° |
| 2026-04-22 19:16 | 49.59712 | 3.95131 | 15268 ft | 330 kts | 272° |
| 2026-04-22 19:16 | 49.59709 | 3.91590 | 14930 ft | 329 kts | 272° |
| 2026-04-22 19:16 | 49.59702 | 3.88058 | 14619 ft | 328 kts | 271° |
| 2026-04-22 19:17 | 49.59691 | 3.84606 | 14301 ft | 326 kts | 271° |
| 2026-04-22 19:17 | 49.59678 | 3.81113 | 13970 ft | 325 kts | 271° |
| 2026-04-22 19:17 | 49.59662 | 3.77642 | 13649 ft | 324 kts | 271° |
| 2026-04-22 19:17 | 49.59648 | 3.74171 | 13337 ft | 323 kts | 271° |
| 2026-04-22 19:18 | 49.59636 | 3.70712 | 13040 ft | 321 kts | 271° |
| 2026-04-22 19:18 | 49.59634 | 3.67281 | 12740 ft | 319 kts | 271° |
| 2026-04-22 19:18 | 49.59630 | 3.63868 | 12415 ft | 318 kts | 271° |
| 2026-04-22 19:18 | 49.59631 | 3.60458 | 12102 ft | 317 kts | 271° |
| 2026-04-22 19:19 | 49.59636 | 3.57720 | 11868 ft | 315 kts | 271° |
| 2026-04-22 19:19 | 49.59645 | 3.54348 | 11529 ft | 315 kts | 271° |
| 2026-04-22 19:19 | 49.59664 | 3.50978 | 11268 ft | 313 kts | 271° |
| 2026-04-22 19:19 | 49.59693 | 3.47642 | 11148 ft | 310 kts | 271° |
| 2026-04-22 19:20 | 49.59721 | 3.44343 | 11035 ft | 305 kts | 271° |
| 2026-04-22 19:20 | 49.59748 | 3.41050 | 10821 ft | 309 kts | 271° |
| 2026-04-22 19:20 | 49.59779 | 3.37731 | 10575 ft | 309 kts | 271° |
| 2026-04-22 19:20 | 49.59816 | 3.34423 | 10264 ft | 308 kts | 271° |
| 2026-04-22 19:21 | 49.59859 | 3.31160 | 9934 ft | 309 kts | 271° |
| 2026-04-22 19:21 | 49.59906 | 3.27812 | 9625 ft | 308 kts | 271° |
| 2026-04-22 19:21 | 49.59967 | 3.24520 | 9343 ft | 307 kts | 271° |
| 2026-04-22 19:21 | 49.60030 | 3.21283 | 9053 ft | 305 kts | 271° |
| 2026-04-22 19:22 | 49.60099 | 3.18019 | 8752 ft | 304 kts | 271° |
| 2026-04-22 19:22 | 49.60166 | 3.14770 | 8452 ft | 303 kts | 271° |
| 2026-04-22 19:22 | 49.60234 | 3.11531 | 8131 ft | 302 kts | 271° |
| 2026-04-22 19:22 | 49.60304 | 3.08301 | 7840 ft | 301 kts | 271° |
| 2026-04-22 19:23 | 49.60371 | 3.05085 | 7554 ft | 299 kts | 271° |
| 2026-04-22 19:23 | 49.60438 | 3.01891 | 7248 ft | 298 kts | 271° |
| 2026-04-22 19:23 | 49.60502 | 2.98702 | 6960 ft | 298 kts | 271° |
| 2026-04-22 19:23 | 49.60573 | 2.95516 | 6684 ft | 296 kts | 271° |
| 2026-04-22 19:24 | 49.60634 | 2.92350 | 6382 ft | 295 kts | 271° |
| 2026-04-22 19:24 | 49.60704 | 2.89192 | 6055 ft | 295 kts | 271° |
| 2026-04-22 19:24 | 49.60775 | 2.86037 | 5764 ft | 294 kts | 271° |
| 2026-04-22 19:24 | 49.60843 | 2.82900 | 5473 ft | 292 kts | 271° |
| 2026-04-22 19:25 | 49.60898 | 2.79844 | 5167 ft | 291 kts | 271° |
| 2026-04-22 19:25 | 49.60944 | 2.77191 | 5052 ft | 290 kts | 271° |
| 2026-04-22 19:25 | 49.60995 | 2.74098 | 4993 ft | 288 kts | 271° |
| 2026-04-22 19:25 | 49.61048 | 2.71010 | 4988 ft | 290 kts | 271° |
| 2026-04-22 19:26 | 49.61101 | 2.67906 | 4987 ft | 294 kts | 271° |
| 2026-04-22 19:26 | 49.61157 | 2.64750 | 4987 ft | 295 kts | 271° |
| 2026-04-22 19:26 | 49.61216 | 2.61599 | 4979 ft | 293 kts | 271° |
| 2026-04-22 19:26 | 49.61275 | 2.58468 | 4978 ft | 292 kts | 271° |
| 2026-04-22 19:27 | 49.61333 | 2.55343 | 4980 ft | 292 kts | 271° |
| 2026-04-22 19:27 | 49.61382 | 2.52691 | 4977 ft | 295 kts | 271° |
| 2026-04-22 19:27 | 49.61442 | 2.49542 | 4976 ft | 293 kts | 271° |
| 2026-04-22 19:27 | 49.61500 | 2.46412 | 4974 ft | 291 kts | 271° |
| 2026-04-22 19:28 | 49.61564 | 2.43270 | 4978 ft | 293 kts | 271° |
| 2026-04-22 19:28 | 49.61626 | 2.40164 | 4976 ft | 294 kts | 271° |
| 2026-04-22 19:28 | 49.61686 | 2.37016 | 4973 ft | 294 kts | 271° |
| 2026-04-22 19:28 | 49.61747 | 2.33862 | 4974 ft | 293 kts | 271° |
| 2026-04-22 19:29 | 49.61806 | 2.30712 | 4971 ft | 293 kts | 271° |
| 2026-04-22 19:29 | 49.61865 | 2.27573 | 4971 ft | 293 kts | 271° |
| 2026-04-22 19:29 | 49.61924 | 2.24439 | 4969 ft | 292 kts | 271° |
| 2026-04-22 19:29 | 49.61882 | 2.21295 | 4969 ft | 294 kts | 264° |
| 2026-04-22 19:30 | 49.61735 | 2.19188 | 4972 ft | 292 kts | 262° |
| 2026-04-22 19:30 | 49.61387 | 2.15082 | 4963 ft | 290 kts | 261° |
| 2026-04-22 19:30 | 49.61126 | 2.12070 | 4853 ft | 275 kts | 261° |
| 2026-04-22 19:30 | 49.60883 | 2.09204 | 4457 ft | 267 kts | 261° |
| 2026-04-22 19:31 | 49.60633 | 2.06374 | 3927 ft | 266 kts | 261° |
| 2026-04-22 19:31 | 49.60374 | 2.03558 | 3390 ft | 265 kts | 261° |
| 2026-04-22 19:31 | 49.60109 | 2.00751 | 3170 ft | 268 kts | 261° |
| 2026-04-22 19:31 | 49.59828 | 1.97889 | 3093 ft | 271 kts | 261° |
| 2026-04-22 19:32 | 49.59438 | 1.95067 | 3006 ft | 264 kts | 247° |
| 2026-04-22 19:32 | 49.58489 | 1.92812 | 2956 ft | 241 kts | 225° |
| 2026-04-22 19:32 | 49.57236 | 1.91255 | 2909 ft | 224 kts | 199° |
| 2026-04-22 19:32 | 49.55800 | 1.90962 | 2903 ft | 194 kts | 163° |
| 2026-04-22 19:33 | 49.54649 | 1.91725 | 2968 ft | 172 kts | 141° |
| 2026-04-22 19:33 | 49.53791 | 1.92869 | 3001 ft | 159 kts | 128° |
| 2026-04-22 19:33 | 49.53074 | 1.94152 | 2859 ft | 158 kts | 125° |
| 2026-04-22 19:33 | 49.52400 | 1.95429 | 2658 ft | 149 kts | 122° |
| 2026-04-22 19:34 | 49.51799 | 1.96687 | 2442 ft | 143 kts | 120° |
| 2026-04-22 19:34 | 49.51247 | 1.97922 | 2254 ft | 138 kts | 119° |
| 2026-04-22 19:34 | 49.50719 | 1.99122 | 2120 ft | 132 kts | 119° |
| 2026-04-22 19:34 | 49.50206 | 2.00299 | 1928 ft | 134 kts | 119° |
| 2026-04-22 19:35 | 49.49684 | 2.01502 | 1734 ft | 140 kts | 120° |
| 2026-04-22 19:35 | 49.49127 | 2.02789 | 1548 ft | 145 kts | 121° |
| 2026-04-22 19:35 | 49.48748 | 2.03661 | 1416 ft | 144 kts | 122° |
| 2026-04-22 19:35 | 49.48017 | 2.05343 | 1140 ft | 144 kts | 122° |
| 2026-04-22 19:36 | 49.47468 | 2.06607 | 975 ft | 142 kts | 121° |
| 2026-04-22 19:36 | 49.46923 | 2.07871 | 778 ft | 141 kts | 122° |
| 2026-04-22 19:36 | 49.46383 | 2.09113 | 598 ft | 139 kts | 121° |
| 2026-04-22 19:36 | 49.45855 | 2.10332 | 429 ft | 135 kts | 122° |
| 2026-04-22 19:37 | 49.45359 | 2.11475 | 368 ft | 115 kts | 122° |
| 2026-04-22 19:37 | 49.45081 | 2.12124 | 367 ft | 25 kts | 123° |
| 2026-04-22 19:37 | 49.45033 | 2.12271 | 367 ft | 15 kts | 116° |
| 2026-04-22 19:37 | 49.45000 | 2.12290 | 367 ft | 5 kts | 282° |
| 2026-04-22 19:38 | 49.45067 | 2.12147 | 367 ft | 27 kts | 306° |
| 2026-04-22 19:38 | 49.45175 | 2.11904 | 367 ft | 26 kts | 302° |
| 2026-04-22 19:38 | 49.45269 | 2.11680 | 367 ft | 24 kts | 304° |
| 2026-04-22 19:38 | 49.45358 | 2.11477 | 367 ft | 22 kts | 304° |
| 2026-04-22 19:39 | 49.45444 | 2.11310 | 367 ft | 12 kts | 358° |
| 2026-04-22 19:39 | 49.45529 | 2.11403 | 367 ft | 18 kts | 43° |
| 2026-04-22 19:39 | 49.45619 | 2.11527 | 367 ft | 17 kts | 41° |
| 2026-04-22 19:39 | 49.45710 | 2.11621 | 367 ft | 16 kts | 341° |
| 2026-04-22 19:40 | 49.45789 | 2.11512 | 367 ft | 15 kts | 301° |
| 2026-04-22 19:40 | 49.45780 | 2.11421 | 367 ft | 6 kts | 228° |
| 2026-04-22 19:40 | 49.45747 | 2.11376 | 367 ft | 6 kts | 220° |
| 2026-04-22 19:40 | 49.45718 | 2.11329 | 367 ft | 6 kts | 245° |
| 2026-04-22 19:41 | 49.45739 | 2.11286 | 367 ft | 6 kts | 338° |
| 2026-04-22 19:41 | 49.45764 | 2.11272 | 367 ft | 3 kts | 342° |
| 2026-04-22 19:41 | 49.45772 | 2.11268 | 367 ft | 3 kts | 342° |
| 2026-04-22 19:41 | 49.45778 | 2.11266 | 367 ft | 0 kts | 343° |
| 2026-04-22 19:42 | 49.45776 | 2.11266 | 367 ft | 1 kts | 343° |